Belle Chasse — WDG2912 — position and weather

sailwx.info

Track history (hours):
 
Tides and Currents Weather Stations Pressure Air Temp Water Temp Dewpoint Dewpoint Depression Visibility Wind Speed Wind Dir Waves Ship Positions

Belle Chasse

Owner: Higman Barge Lines, Inc, Orange, TX. More information available from US FCC via Universal Licensing System and Coast Guard Vessel Documentation Center.

Last reported at 2017-Jun-24 19:52 UTC. Time now 2017-Jun-24 20:52 UTC.
Position N 29°47' W 095°05'.

Length 26 m; draft 3 m.

Type: Towing. MMSI: 367520550.

Date/timePositionNaut miles runAvg speedWind from/ knotsBaromVisibWave heightAir tempDewpointWater temp
2017-Jun-24 19:52N 29°47' W 095°05'0 0.0
2017-Jun-24 18:07N 29°47' W 095°05'0 0.0
2017-Jun-24 17:49N 29°47' W 095°05'0 0.0
2017-Jun-24 17:28N 29°47' W 095°05'0 0.0
2017-Jun-24 16:58N 29°47' W 095°05'0 0.0
2017-Jun-24 16:28N 29°47' W 095°05'0 0.0
2017-Jun-24 15:34N 29°47' W 095°05'0 0.0
2017-Jun-24 15:25N 29°47' W 095°05'0 0.0
2017-Jun-24 14:55N 29°47' W 095°05'0 0.0
2017-Jun-24 09:43N 29°47' W 095°05'0 0.1
2017-Jun-24 09:29N 29°47' W 095°05'2 4.2
2017-Jun-24 08:58N 29°45' W 095°06'3 5.8
2017-Jun-24 08:24N 29°44' W 095°10'0 0.1
2017-Jun-24 07:36N 29°44' W 095°10'0 0.1
2017-Jun-24 07:30N 29°44' W 095°10'0 0.0
2017-Jun-24 07:00N 29°44' W 095°10'0 0.0
2017-Jun-24 06:27N 29°44' W 095°10'0 0.0
2017-Jun-24 06:00N 29°44' W 095°10'0 0.0
2017-Jun-24 05:24N 29°44' W 095°10'0 0.0
2017-Jun-24 05:00N 29°44' W 095°10'0 0.0
2017-Jun-24 04:30N 29°44' W 095°10'0 0.0
2017-Jun-24 03:51N 29°44' W 095°10'0 0.0
2017-Jun-24 03:27N 29°44' W 095°10'0 0.0
2017-Jun-24 03:00N 29°44' W 095°10'0 0.0
2017-Jun-24 02:27N 29°44' W 095°10'0 0.0
2017-Jun-24 01:57N 29°44' W 095°10'0 0.0
2017-Jun-24 01:30N 29°44' W 095°10'0 0.0
2017-Jun-24 01:00N 29°44' W 095°10'0 0.0
2017-Jun-24 00:24N 29°44' W 095°10'0 0.0
2017-Jun-24 00:00N 29°44' W 095°10'0 0.0
2017-Jun-23 23:30N 29°44' W 095°10'0 0.0
2017-Jun-23 23:00N 29°44' W 095°10'0 0.0
2017-Jun-23 22:12N 29°44' W 095°10'0 0.0
2017-Jun-23 21:54N 29°44' W 095°10'0 0.0
2017-Jun-23 21:30N 29°44' W 095°10'0 0.0
2017-Jun-23 21:00N 29°44' W 095°10'0 0.0
2017-Jun-23 20:27N 29°44' W 095°10'0 0.0
2017-Jun-23 20:00N 29°44' W 095°10'0 0.0
2017-Jun-23 19:30N 29°44' W 095°10'0 0.0
2017-Jun-23 19:00N 29°44' W 095°10'0 0.0
2017-Jun-23 18:30N 29°44' W 095°10'0 0.0
2017-Jun-23 18:00N 29°44' W 095°10'0 0.0
2017-Jun-23 17:24N 29°44' W 095°10'0 0.0
2017-Jun-23 17:00N 29°44' W 095°10'0 0.0
2017-Jun-23 16:30N 29°44' W 095°10'0 0.0
2017-Jun-23 16:00N 29°44' W 095°10'0 0.0
2017-Jun-23 15:30N 29°44' W 095°10'0 0.0
2017-Jun-23 15:00N 29°44' W 095°10'0 0.0
2017-Jun-23 14:30N 29°44' W 095°10'0 0.0
2017-Jun-23 13:30N 29°44' W 095°10'0 0.0
2017-Jun-23 13:00N 29°44' W 095°10'0 0.0
2017-Jun-23 12:30N 29°44' W 095°10'0 0.0
2017-Jun-23 08:12N 29°44' W 095°10'0 0.6
2017-Jun-23 07:48N 29°45' W 095°10'1 2.6
2017-Jun-23 07:30N 29°44' W 095°09'3 5.4
2017-Jun-23 06:56N 29°45' W 095°06'1 1.2
2017-Jun-23 06:13N 29°46' W 095°05'0 0.0
2017-Jun-23 05:58N 29°46' W 095°05'0 0.0
2017-Jun-23 05:22N 29°46' W 095°05'0 0.0
2017-Jun-23 04:58N 29°46' W 095°05'0 0.0
2017-Jun-23 04:22N 29°46' W 095°05'0 0.0
2017-Jun-23 03:31N 29°46' W 095°05'0 0.0
2017-Jun-23 03:28N 29°46' W 095°05'0 0.0
2017-Jun-23 02:52N 29°46' W 095°05'0 0.0
2017-Jun-23 02:28N 29°46' W 095°05'0 0.0
2017-Jun-23 01:58N 29°46' W 095°05'0 0.0
2017-Jun-23 01:28N 29°46' W 095°05'0 0.0
2017-Jun-23 00:58N 29°46' W 095°05'0 0.0
2017-Jun-23 00:16N 29°46' W 095°05'0 0.0
2017-Jun-22 23:22N 29°46' W 095°05'0 0.0
2017-Jun-22 22:52N 29°46' W 095°05'0 0.0
2017-Jun-22 22:13N 29°46' W 095°05'0 1.6
2017-Jun-22 22:00N 29°46' W 095°05'1 0.9
2017-Jun-22 21:14N 29°46' W 095°06'0 0.0
2017-Jun-22 20:44N 29°46' W 095°06'0 0.0
2017-Jun-22 20:28N 29°46' W 095°06'1 1.2
2017-Jun-22 19:50N 29°46' W 095°05'0 0.8
2017-Jun-22 19:30N 29°46' W 095°05'1 1.2
2017-Jun-22 19:00N 29°46' W 095°05'2 5.0
2017-Jun-22 18:30N 29°44' W 095°03'2 4.5
2017-Jun-22 18:00N 29°42' W 095°01'2 4.9
2017-Jun-22 17:30N 29°41' W 094°59'3 5.9
2017-Jun-22 17:00N 29°38' W 094°58'3 6.5
2017-Jun-22 16:30N 29°35' W 094°56'4 7.3
2017-Jun-22 16:00N 29°32' W 094°54'4 7.3
2017-Jun-22 15:30N 29°29' W 094°51'  
2017-Jun-19 22:56N 29°27' W 094°51'4 8.2
2017-Jun-19 22:30N 29°30' W 094°53'4 8.0
2017-Jun-19 22:00N 29°34' W 094°55'4 7.8
2017-Jun-19 21:30N 29°37' W 094°57'4 7.9
2017-Jun-19 21:00N 29°41' W 094°59'3 6.0
2017-Jun-19 20:30N 29°43' W 095°01'3 6.4
2017-Jun-19 20:00N 29°45' W 095°04'2 1.7
2017-Jun-19 18:44N 29°47' W 095°06'0 1.4
2017-Jun-19 18:29N 29°46' W 095°06'  
2017-Jun-17 09:29N 29°47' W 095°06'1 2.3
2017-Jun-17 09:00N 29°46' W 095°05'4 7.2
2017-Jun-17 08:30N 29°44' W 095°02'3 5.3
2017-Jun-17 08:00N 29°42' W 094°60'3 6.8
2017-Jun-17 07:31N 29°39' W 094°58'3 6.8
2017-Jun-17 07:01N 29°36' W 094°56'3 6.7
2017-Jun-17 06:31N 29°33' W 094°54'3 6.7
2017-Jun-17 06:01N 29°30' W 094°52'  
Track history (hours):
 
Tides and Currents Weather Stations Pressure Air Temp Water Temp Dewpoint Dewpoint Depression Visibility Wind Speed Wind Dir Waves Ship Positions

Belle Chasse

Owner: Higman Barge Lines, Inc, Orange, TX. More information available from US FCC via Universal Licensing System and Coast Guard Vessel Documentation Center.

Last reported at 2017-Jun-24 19:52 UTC. Time now 2017-Jun-24 20:52 UTC.
Position N 29°47' W 095°05'.

Length 26 m; draft 3 m.

Type: Towing. MMSI: 367520550.

Date/timePositionNaut miles runAvg speedWind from/ knotsBaromVisibWave heightAir tempDewpointWater temp
2017-Jun-24 19:52N 29°47' W 095°05'0 0.0
2017-Jun-24 18:07N 29°47' W 095°05'0 0.0
2017-Jun-24 17:49N 29°47' W 095°05'0 0.0
2017-Jun-24 17:28N 29°47' W 095°05'0 0.0
2017-Jun-24 16:58N 29°47' W 095°05'0 0.0
2017-Jun-24 16:28N 29°47' W 095°05'0 0.0
2017-Jun-24 15:34N 29°47' W 095°05'0 0.0
2017-Jun-24 15:25N 29°47' W 095°05'0 0.0
2017-Jun-24 14:55N 29°47' W 095°05'0 0.0
2017-Jun-24 09:43N 29°47' W 095°05'0 0.1
2017-Jun-24 09:29N 29°47' W 095°05'2 4.2
2017-Jun-24 08:58N 29°45' W 095°06'3 5.8
2017-Jun-24 08:24N 29°44' W 095°10'0 0.1
2017-Jun-24 07:36N 29°44' W 095°10'0 0.1
2017-Jun-24 07:30N 29°44' W 095°10'0 0.0
2017-Jun-24 07:00N 29°44' W 095°10'0 0.0
2017-Jun-24 06:27N 29°44' W 095°10'0 0.0
2017-Jun-24 06:00N 29°44' W 095°10'0 0.0
2017-Jun-24 05:24N 29°44' W 095°10'0 0.0
2017-Jun-24 05:00N 29°44' W 095°10'0 0.0
2017-Jun-24 04:30N 29°44' W 095°10'0 0.0
2017-Jun-24 03:51N 29°44' W 095°10'0 0.0
2017-Jun-24 03:27N 29°44' W 095°10'0 0.0
2017-Jun-24 03:00N 29°44' W 095°10'0 0.0
2017-Jun-24 02:27N 29°44' W 095°10'0 0.0
2017-Jun-24 01:57N 29°44' W 095°10'0 0.0
2017-Jun-24 01:30N 29°44' W 095°10'0 0.0
2017-Jun-24 01:00N 29°44' W 095°10'0 0.0
2017-Jun-24 00:24N 29°44' W 095°10'0 0.0
2017-Jun-24 00:00N 29°44' W 095°10'0 0.0
2017-Jun-23 23:30N 29°44' W 095°10'0 0.0
2017-Jun-23 23:00N 29°44' W 095°10'0 0.0
2017-Jun-23 22:12N 29°44' W 095°10'0 0.0
2017-Jun-23 21:54N 29°44' W 095°10'0 0.0
2017-Jun-23 21:30N 29°44' W 095°10'0 0.0
2017-Jun-23 21:00N 29°44' W 095°10'0 0.0
2017-Jun-23 20:27N 29°44' W 095°10'0 0.0
2017-Jun-23 20:00N 29°44' W 095°10'0 0.0
2017-Jun-23 19:30N 29°44' W 095°10'0 0.0
2017-Jun-23 19:00N 29°44' W 095°10'0 0.0
2017-Jun-23 18:30N 29°44' W 095°10'0 0.0
2017-Jun-23 18:00N 29°44' W 095°10'0 0.0
2017-Jun-23 17:24N 29°44' W 095°10'0 0.0
2017-Jun-23 17:00N 29°44' W 095°10'0 0.0
2017-Jun-23 16:30N 29°44' W 095°10'0 0.0
2017-Jun-23 16:00N 29°44' W 095°10'0 0.0
2017-Jun-23 15:30N 29°44' W 095°10'0 0.0
2017-Jun-23 15:00N 29°44' W 095°10'0 0.0
2017-Jun-23 14:30N 29°44' W 095°10'0 0.0
2017-Jun-23 13:30N 29°44' W 095°10'0 0.0
2017-Jun-23 13:00N 29°44' W 095°10'0 0.0
2017-Jun-23 12:30N 29°44' W 095°10'0 0.0
2017-Jun-23 08:12N 29°44' W 095°10'0 0.6
2017-Jun-23 07:48N 29°45' W 095°10'1 2.6
2017-Jun-23 07:30N 29°44' W 095°09'3 5.4
2017-Jun-23 06:56N 29°45' W 095°06'1 1.2
2017-Jun-23 06:13N 29°46' W 095°05'0 0.0
2017-Jun-23 05:58N 29°46' W 095°05'0 0.0
2017-Jun-23 05:22N 29°46' W 095°05'0 0.0
2017-Jun-23 04:58N 29°46' W 095°05'0 0.0
2017-Jun-23 04:22N 29°46' W 095°05'0 0.0
2017-Jun-23 03:31N 29°46' W 095°05'0 0.0
2017-Jun-23 03:28N 29°46' W 095°05'0 0.0
2017-Jun-23 02:52N 29°46' W 095°05'0 0.0
2017-Jun-23 02:28N 29°46' W 095°05'0 0.0
2017-Jun-23 01:58N 29°46' W 095°05'0 0.0
2017-Jun-23 01:28N 29°46' W 095°05'0 0.0
2017-Jun-23 00:58N 29°46' W 095°05'0 0.0
2017-Jun-23 00:16N 29°46' W 095°05'0 0.0
2017-Jun-22 23:22N 29°46' W 095°05'0 0.0
2017-Jun-22 22:52N 29°46' W 095°05'0 0.0
2017-Jun-22 22:13N 29°46' W 095°05'0 1.6
2017-Jun-22 22:00N 29°46' W 095°05'1 0.9
2017-Jun-22 21:14N 29°46' W 095°06'0 0.0
2017-Jun-22 20:44N 29°46' W 095°06'0 0.0
2017-Jun-22 20:28N 29°46' W 095°06'1 1.2
2017-Jun-22 19:50N 29°46' W 095°05'0 0.8
2017-Jun-22 19:30N 29°46' W 095°05'1 1.2
2017-Jun-22 19:00N 29°46' W 095°05'2 5.0
2017-Jun-22 18:30N 29°44' W 095°03'2 4.5
2017-Jun-22 18:00N 29°42' W 095°01'2 4.9
2017-Jun-22 17:30N 29°41' W 094°59'3 5.9
2017-Jun-22 17:00N 29°38' W 094°58'3 6.5
2017-Jun-22 16:30N 29°35' W 094°56'4 7.3
2017-Jun-22 16:00N 29°32' W 094°54'4 7.3
2017-Jun-22 15:30N 29°29' W 094°51'  
2017-Jun-19 22:56N 29°27' W 094°51'4 8.2
2017-Jun-19 22:30N 29°30' W 094°53'4 8.0
2017-Jun-19 22:00N 29°34' W 094°55'4 7.8
2017-Jun-19 21:30N 29°37' W 094°57'4 7.9
2017-Jun-19 21:00N 29°41' W 094°59'3 6.0
2017-Jun-19 20:30N 29°43' W 095°01'3 6.4
2017-Jun-19 20:00N 29°45' W 095°04'2 1.7
2017-Jun-19 18:44N 29°47' W 095°06'0 1.4
2017-Jun-19 18:29N 29°46' W 095°06'  
2017-Jun-17 09:29N 29°47' W 095°06'1 2.3
2017-Jun-17 09:00N 29°46' W 095°05'4 7.2
2017-Jun-17 08:30N 29°44' W 095°02'3 5.3
2017-Jun-17 08:00N 29°42' W 094°60'3 6.8
2017-Jun-17 07:31N 29°39' W 094°58'3 6.8
2017-Jun-17 07:01N 29°36' W 094°56'3 6.7
2017-Jun-17 06:31N 29°33' W 094°54'3 6.7
2017-Jun-17 06:01N 29°30' W 094°52'  

Dump ship's entire track history